Terminal Aerodrome Forecast
Issued by NWS

Home | Current Version | Previous Version | Text Only | Print | Product List | Glossary On
Versions: 1 2 3 4 5 6 7 8 9 10 11 12 13 14
000
FTUS45 KPSR 271100
TAFIPL
TAF
KIPL 271122Z 2712/2812 VRB04KT P6SM FEW250
     FM272100 26010KT P6SM SCT250
     FM280100 25015G23KT P6SM FEW120 BKN250
     FM280700 26018G26KT P6SM FEW080 BKN150=

USA.gov is the U.S. government's official web portal to all federal, state and local government web resources and services.